MMSD/SJD METAR and TAF weather

Enter ICAO airport designator
Station Type Date Time Source
MMSD METAR 2021/04/13 21:47 UTC NOAA

MMSD 132147Z 16010KT 10SM SKC 28/11 A2984


Station Type Date Time Source
MMSD Decoded METAR 2021/04/13 21:47 UTC NOAA

San Jose Del Cabo , Mexico (MMSD) 23-09N 109-42W
Apr 13, 2021 - 05:47 PM EDT / 2021.04.13 2147 UTC
Wind: from the SSE (160 degrees) at 12 MPH (10 KT):0
Visibility: 10 mile(s):0
Sky conditions: clear
Temperature: 82 F (28 C)
Dew Point: 51 F (11 C)
Relative Humidity: 34%
Pressure (altimeter): 29.84 in. Hg (1010 hPa)
ob: MMSD 132147Z 16010KT 10SM SKC 28/11 A2984
cycle: 22

Station Type Date Time Source
MMSD TAF 2021/04/13 18:42 UTC NOAA

TAF TAF MMSD 131640Z 1318/1418 32008KT P6SM SKC
BECMG 1320/1321 36015KT
FM140200 36006KT P6SM SKC
BECMG 1405/1406 00000KT
FM141200 32006KT P6SM SCT240

Example: see airport list